Garvin Ridge, Kentucky
Current Conditions -  °F | °C
As of 9:30 AM on Friday 24 Oct 2014 (Local Time) from KSYM Reporting Station
Haze Haze  
Wind Chill: 45°   Ceiling: Unl
Heat Index: 45°   Visibility: 3mi
Dew Point: 43°   Wind: 0mph
Humidity: 93%   Direction: NA
Pressure: 30.16"   Gusts: NA
Location:  38.3543°N, 83.1837°W
Report Text: KSYM 241330Z AUTO 00000KT 3SM BR CLR 07/06 A3016 RMK AO2
Loading
Personal Weather Stations






























Interactive Weather Map
Tropical Storm Tracking
New forecast layout! Learn more

10-Day Weather Forecast

Advertisements
Track Severe Weather on mobile